Time;durP1;ratioP1;P1;durP2;ratioP2;P2;SDS_P1;SDS_P2;PMS_P1;PMS_P2;Temp;Humidity;BMP_temperature;BMP_pressure;BME280_temperature;BME280_humidity;BME280_pressure;Samples;Min_cycle;Max_cycle;Signal;HPM_P1;HPM_P2
2022/01/22 00:01:09;;;;;;;;;;;;;;;;;;4960038;28;19925;-65
2022/01/22 00:03:35;;;;;;;;;;;;;;;;;;4963361;28;19937;-63
2022/01/22 00:06:00;;;;;;;;;;;;;;;;;;4964829;28;20288;-66
2022/01/22 00:08:26;;;;;;;;;;;;;;;;;;4962596;28;19932;-66
2022/01/22 00:10:52;;;;;;;;;;;;;;;;;;4963507;28;19946;-63
2022/01/22 00:15:43;;;;;;;;;;;;;;;;;;4965015;28;20349;-62
2022/01/22 00:18:08;;;;;;;;;;;;;;;;;;4963982;28;20386;-65
2022/01/22 00:20:34;;;;;;;;;;;;;;;;;;4964250;28;20012;-65
2022/01/22 00:22:59;;;;;;;;;;;;;;;;;;4962497;28;19926;-61
2022/01/22 00:25:25;;;;;;;;;;;;;;;;;;4956208;28;20296;-64
2022/01/22 00:27:51;;;;;;;;;;;;;;;;;;4963197;28;19965;-63
2022/01/22 00:30:22;;;;;;;;;;;;;;;;;;4969039;28;19922;-62
2022/01/22 00:32:48;;;;;;;;;;;;;;;;;;4964874;28;19965;-65
2022/01/22 00:35:14;;;;;;;;;;;;;;;;;;4958254;28;19918;-64
2022/01/22 00:37:40;;;;;;;;;;;;;;;;;;4970719;28;19978;-64
2022/01/22 00:40:06;;;;;;;;;;;;;;;;;;4968454;28;19981;-63
2022/01/22 00:42:34;;;;;;;;;;;;;;;;;;4965555;28;19981;-62
2022/01/22 00:45:00;;;;;;;;;;;;;;;;;;4961721;28;19930;-62
2022/01/22 00:47:25;;;;;;;;;;;;;;;;;;4965979;28;19918;-62
2022/01/22 00:49:51;;;;;;;;;;;;;;;;;;4963567;28;20253;-62
2022/01/22 00:52:16;;;;;;;;;;;;;;;;;;4964687;28;19918;-65
2022/01/22 00:54:42;;;;;;;;;;;;;;;;;;4965059;28;20328;-65
2022/01/22 00:57:07;;;;;;;;;;;;;;;;;;4961526;28;20298;-62
2022/01/22 00:59:33;;;;;;;;;;;;;;;;;;4960436;28;19921;-65
2022/01/22 01:01:58;;;;;;;;;;;;;;;;;;4961391;28;20748;-62
2022/01/22 01:04:24;;;;;;;;;;;;;;;;;;4963351;28;20427;-64
2022/01/22 01:06:49;;;;;;;;;;;;;;;;;;4964705;28;19918;-64
2022/01/22 01:09:14;;;;;;;;;;;;;;;;;;4967894;28;19981;-64
2022/01/22 01:11:48;;;;;;;;;;;;;;;;;;4965457;28;19928;-63
2022/01/22 01:14:20;;;;;;;;;;;;;;;;;;4963798;28;19985;-65
2022/01/22 01:33:22;;;;;;;;;;;;;;;;;;4962817;28;19925;-64
2022/01/22 01:35:47;;;;;;;;;;;;;;;;;;4967319;28;19949;-61
2022/01/22 01:38:13;;;;;;;;;;;;;;;;;;4964718;28;20352;-63
2022/01/22 01:40:42;;;;;;;;;;;;;;;;;;4963299;28;19922;-62
2022/01/22 01:43:16;;;;;;;;;;;;;;;;;;4963735;28;19950;-63
2022/01/22 01:45:42;;;;;;;;;;;;;;;;;;4967252;28;19918;-61
2022/01/22 01:48:13;;;;;;;;;;;;;;;;;;4964799;28;20380;-60
2022/01/22 01:50:40;;;;;;;;;;;;;;;;;;4967322;28;19929;-62
2022/01/22 01:56:01;;;;;;;;;;;;;;;;;;;;;
2022/01/22 01:58:12;;;;;;;;;;;;;;;;;;4964286;28;19925;-61
2022/01/22 02:00:37;;;;;;;;;;;;;;;;;;4966954;28;20343;-60
2022/01/22 02:03:03;;;;;;;;;;;;;;;;;;4965830;28;20008;-63
2022/01/22 02:05:28;;;;;;;;;;;;;;;;;;4965529;28;19969;-62
2022/01/22 02:07:55;;;;;;;;;;;;;;;;;;4963014;28;20005;-63
2022/01/22 02:10:25;;;;;;;;;;;;;;;;;;4963957;28;19926;-63
2022/01/22 02:23:37;;;;;;;;;;;;;;;;;;4964369;28;20024;-60
2022/01/22 02:26:04;;;;;;;;;;;;;;;;;;4963188;28;19988;-63
2022/01/22 02:28:29;;;;;;;;;;;;;;;;;;4969224;28;19969;-63
2022/01/22 02:31:03;;;;;;;;;;;;;;;;;;4964675;28;19922;-62
2022/01/22 02:33:42;;;;;;;;;;;;;;;;;;4964520;28;19929;-62
2022/01/22 02:41:21;;;;;;;;;;;;;;;;;;4968276;28;19925;-64
2022/01/22 02:43:47;;;;;;;;;;;;;;;;;;4963442;28;19932;-61
2022/01/22 02:46:18;;;;;;;;;;;;;;;;;;4966665;28;19918;-61
2022/01/22 02:48:43;;;;;;;;;;;;;;;;;;4968717;28;19926;-63
2022/01/22 02:51:08;;;;;;;;;;;;;;;;;;4963986;28;20435;-61
2022/01/22 02:53:34;;;;;;;;;;;;;;;;;;4961651;28;20379;-63
2022/01/22 02:56:00;;;;;;;;;;;;;;;;;;4966689;28;19952;-62
2022/01/22 02:58:25;;;;;;;;;;;;;;;;;;4962321;28;20008;-63
2022/01/22 03:00:51;;;;;;;;;;;;;;;;;;4964352;28;20382;-62
2022/01/22 03:03:16;;;;;;;;;;;;;;;;;;4968095;28;20396;-63
2022/01/22 03:05:42;;;;;;;;;;;;;;;;;;4966077;28;19925;-61
2022/01/22 03:08:09;;;;;;;;;;;;;;;;;;4969499;28;20419;-62
2022/01/22 03:10:36;;;;;;;;;;;;;;;;;;4966773;28;20388;-63
2022/01/22 03:13:53;;;;;;;;;;;;;;;;;;4962675;28;19961;-63
2022/01/22 03:18:59;;;;;;;;;;;;;;;;;;4965325;28;19918;-64
2022/01/22 03:21:36;;;;;;;;;;;;;;;;;;4963270;28;19922;-62
2022/01/22 03:29:33;;;;;;;;;;;;;;;;;;4960925;28;19965;-63
2022/01/22 03:31:58;;;;;;;;;;;;;;;;;;4961724;28;19922;-65
2022/01/22 03:34:23;;;;;;;;;;;;;;;;;;4969330;28;19921;-62
2022/01/22 03:36:49;;;;;;;;;;;;;;;;;;4962243;28;20000;-63
2022/01/22 03:39:14;;;;;;;;;;;;;;;;;;4966384;28;19962;-63
2022/01/22 03:41:40;;;;;;;;;;;;;;;;;;4963489;28;19914;-63
2022/01/22 03:44:06;;;;;;;;;;;;;;;;;;4965290;28;19922;-62
2022/01/22 03:46:31;;;;;;;;;;;;;;;;;;4967257;28;19926;-61
2022/01/22 03:48:56;;;;;;;;;;;;;;;;;;4964911;28;20403;-62
2022/01/22 03:51:22;;;;;;;;;;;;;;;;;;4965032;28;19930;-63
2022/01/22 03:53:47;;;;;;;;;;;;;;;;;;4962207;28;20363;-60
2022/01/22 03:56:13;;;;;;;;;;;;;;;;;;4961293;28;20273;-60
2022/01/22 03:58:42;;;;;;;;;;;;;;;;;;4967970;28;20459;-59
2022/01/22 04:04:12;;;;;;;;;;;;;;;;;;4961483;28;20395;-63
2022/01/22 04:09:23;;;;;;;;;;;;;;;;;;4964378;28;19925;-61
2022/01/22 04:11:51;;;;;;;;;;;;;;;;;;4963988;28;19930;-62
2022/01/22 04:14:21;;;;;;;;;;;;;;;;;;4965000;28;20218;-62
2022/01/22 04:24:52;;;;;;;;;;;;;;;;;;4960681;28;19991;-61
2022/01/22 04:27:22;;;;;;;;;;;;;;;;;;4961353;28;19919;-61
2022/01/22 04:29:48;;;;;;;;;;;;;;;;;;4961136;28;19957;-61
2022/01/22 04:32:13;;;;;;;;;;;;;;;;;;4963524;28;20367;-61
2022/01/22 04:34:39;;;;;;;;;;;;;;;;;;4967998;28;19918;-62
2022/01/22 04:37:04;;;;;;;;;;;;;;;;;;4965689;28;19926;-62
2022/01/22 04:39:29;;;;;;;;;;;;;;;;;;4965622;28;19918;-63
2022/01/22 04:41:56;;;;;;;;;;;;;;;;;;4966101;28;20012;-63
2022/01/22 04:44:26;;;;;;;;;;;;;;;;;;4962391;28;19922;-64
2022/01/22 04:57:18;;;;;;;;;;;;;;;;;;4962821;28;20438;-63
2022/01/22 04:59:44;;;;;;;;;;;;;;;;;;4959884;28;19919;-64
2022/01/22 05:02:10;;;;;;;;;;;;;;;;;;4957843;28;20013;-62
2022/01/22 05:04:35;;;;;;;;;;;;;;;;;;4961049;28;20072;-64
2022/01/22 05:07:00;;;;;;;;;;;;;;;;;;4959755;28;19918;-63
2022/01/22 05:09:26;;;;;;;;;;;;;;;;;;4966447;28;19926;-62
2022/01/22 05:11:51;;;;;;;;;;;;;;;;;;4960124;28;19922;-64
2022/01/22 05:14:17;;;;;;;;;;;;;;;;;;4962381;28;20073;-64
2022/01/22 05:16:42;;;;;;;;;;;;;;;;;;4959148;28;19949;-62
2022/01/22 05:19:27;;;;;;;;;;;;;;;;;;4957123;28;20012;-62
2022/01/22 05:21:56;;;;;;;;;;;;;;;;;;4962683;28;20004;-63
2022/01/22 05:24:29;;;;;;;;;;;;;;;;;;4968003;28;20380;-63
2022/01/22 05:36:59;;;;;;;;;;;;;;;;;;4972930;28;19934;-62
2022/01/22 05:39:25;;;;;;;;;;;;;;;;;;4972687;28;20308;-62
2022/01/22 05:41:51;;;;;;;;;;;;;;;;;;4962212;28;19918;-63
2022/01/22 05:44:16;;;;;;;;;;;;;;;;;;4963102;28;19922;-63
2022/01/22 05:46:41;;;;;;;;;;;;;;;;;;4968143;28;20384;-63
2022/01/22 05:49:07;;;;;;;;;;;;;;;;;;4969736;28;19948;-64
2022/01/22 05:51:33;;;;;;;;;;;;;;;;;;4973828;28;20149;-62
2022/01/22 06:01:52;;;;;;;;;;;;;;;;;;4967723;28;19929;-64
2022/01/22 06:04:17;;;;;;;;;;;;;;;;;;4968595;28;19922;-62
2022/01/22 06:06:43;;;;;;;;;;;;;;;;;;4971349;28;19918;-63
2022/01/22 06:09:09;;;;;;;;;;;;;;;;;;4972773;28;19918;-63
2022/01/22 06:11:50;;;;;;;;;;;;;;;;;;4966261;28;19918;-63
2022/01/22 06:14:16;;;;;;;;;;;;;;;;;;4969867;28;20045;-60
2022/01/22 06:16:41;;;;;;;;;;;;;;;;;;4969967;28;20020;-61
2022/01/22 06:19:06;;;;;;;;;;;;;;;;;;4968968;28;20012;-61
2022/01/22 06:21:31;;;;;;;;;;;;;;;;;;4966050;28;19922;-61
2022/01/22 06:23:57;;;;;;;;;;;;;;;;;;4970454;28;19926;-62
2022/01/22 06:26:22;;;;;;;;;;;;;;;;;;4966880;28;20380;-62
2022/01/22 06:28:47;;;;;;;;;;;;;;;;;;4973606;28;19918;-61
2022/01/22 06:31:13;;;;;;;;;;;;;;;;;;4968792;28;19930;-59
2022/01/22 06:33:38;;;;;;;;;;;;;;;;;;4964881;28;20469;-62
2022/01/22 06:36:04;;;;;;;;;;;;;;;;;;4969436;28;19957;-63
2022/01/22 06:38:29;;;;;;;;;;;;;;;;;;4965459;28;19922;-62
2022/01/22 06:43:39;;;;;;;;;;;;;;;;;;4966403;28;20465;-62
2022/01/22 06:46:04;;;;;;;;;;;;;;;;;;4965245;28;20033;-61
2022/01/22 06:48:29;;;;;;;;;;;;;;;;;;4963646;28;19919;-60
2022/01/22 06:50:55;;;;;;;;;;;;;;;;;;4959191;28;19923;-61
2022/01/22 06:53:21;;;;;;;;;;;;;;;;;;4964257;28;19934;-60
2022/01/22 06:55:55;;;;;;;;;;;;;;;;;;4963788;28;19923;-61
2022/01/22 06:58:21;;;;;;;;;;;;;;;;;;4965351;28;19918;-61
2022/01/22 07:00:46;;;;;;;;;;;;;;;;;;4965124;28;21670;-61
2022/01/22 07:03:11;;;;;;;;;;;;;;;;;;4963472;28;20413;-61
2022/01/22 07:05:37;;;;;;;;;;;;;;;;;;4965799;28;19918;-62
2022/01/22 07:08:02;;;;;;;;;;;;;;;;;;4966419;28;19918;-62
2022/01/22 07:10:27;;;;;;;;;;;;;;;;;;4961249;28;19918;-63
2022/01/22 07:12:53;;;;;;;;;;;;;;;;;;4961667;28;20009;-61
2022/01/22 07:15:20;;;;;;;;;;;;;;;;;;4967529;28;19921;-61
2022/01/22 07:17:45;;;;;;;;;;;;;;;;;;4962126;28;19932;-63
2022/01/22 07:20:15;;;;;;;;;;;;;;;;;;4965844;28;20307;-62
2022/01/22 07:23:53;;;;;;;;;;;;;;;;;;4967217;28;19996;-62
2022/01/22 07:25:29;;;;;;;;;;;;;;;;;;4964508;28;20341;-61
2022/01/22 07:27:54;;;;;;;;;;;;;;;;;;4963937;28;19925;-60
2022/01/22 07:30:20;;;;;;;;;;;;;;;;;;4963577;28;19919;-61
2022/01/22 07:32:45;;;;;;;;;;;;;;;;;;4966553;28;19997;-60
2022/01/22 07:35:12;;;;;;;;;;;;;;;;;;4965583;28;19922;-60
2022/01/22 07:37:37;;;;;;;;;;;;;;;;;;4961193;28;19926;-59
2022/01/22 07:40:04;;;;;;;;;;;;;;;;;;4967458;28;19922;-62
2022/01/22 07:42:29;;;;;;;;;;;;;;;;;;4961355;28;19919;-62
2022/01/22 07:44:55;;;;;;;;;;;;;;;;;;4966115;28;19922;-61
2022/01/22 07:47:20;;;;;;;;;;;;;;;;;;4968214;28;19973;-63
2022/01/22 07:49:45;;;;;;;;;;;;;;;;;;4965912;28;19928;-61
2022/01/22 07:52:11;;;;;;;;;;;;;;;;;;4963519;28;20045;-60
2022/01/22 07:54:36;;;;;;;;;;;;;;;;;;4969243;28;19926;-61
2022/01/22 07:57:02;;;;;;;;;;;;;;;;;;4965438;28;20389;-62
2022/01/22 07:59:28;;;;;;;;;;;;;;;;;;4961906;28;19922;-61
2022/01/22 08:01:54;;;;;;;;;;;;;;;;;;4963779;28;20364;-61
2022/01/22 08:04:23;;;;;;;;;;;;;;;;;;4963786;28;19961;-60
2022/01/22 08:06:49;;;;;;;;;;;;;;;;;;4960170;28;19974;-61
2022/01/22 08:09:15;;;;;;;;;;;;;;;;;;4970673;28;19930;-60
2022/01/22 08:11:40;;;;;;;;;;;;;;;;;;4967370;28;20407;-62
2022/01/22 08:14:09;;;;;;;;;;;;;;;;;;4965150;28;19929;-61
2022/01/22 08:16:34;;;;;;;;;;;;;;;;;;4959800;28;19918;-61
2022/01/22 08:18:59;;;;;;;;;;;;;;;;;;4961381;28;20291;-60
2022/01/22 08:21:25;;;;;;;;;;;;;;;;;;4962962;28;20380;-61
2022/01/22 08:23:50;;;;;;;;;;;;;;;;;;4964809;28;19922;-59
2022/01/22 08:26:20;;;;;;;;;;;;;;;;;;4961845;28;19922;-63
2022/01/22 08:28:54;;;;;;;;;;;;;;;;;;4961781;28;20335;-61
2022/01/22 08:36:39;;;;;;;;;;;;;;;;;;4961817;28;20079;-61
2022/01/22 08:39:04;;;;;;;;;;;;;;;;;;4961537;28;19924;-60
2022/01/22 08:41:30;;;;;;;;;;;;;;;;;;4965855;28;20017;-61
2022/01/22 08:43:57;;;;;;;;;;;;;;;;;;4959290;28;20300;-62
2022/01/22 08:46:23;;;;;;;;;;;;;;;;;;4959276;28;19919;-60
2022/01/22 08:48:48;;;;;;;;;;;;;;;;;;4960582;28;19945;-60
2022/01/22 08:51:14;;;;;;;;;;;;;;;;;;4983218;28;19985;-60
2022/01/22 08:53:39;;;;;;;;;;;;;;;;;;4963971;28;19950;-60
2022/01/22 08:56:05;;;;;;;;;;;;;;;;;;4962522;28;20017;-60
2022/01/22 08:58:30;;;;;;;;;;;;;;;;;;4965330;28;19926;-60
2022/01/22 09:00:56;;;;;;;;;;;;;;;;;;4961608;28;20410;-60
2022/01/22 09:03:22;;;;;;;;;;;;;;;;;;4962500;28;19938;-61
2022/01/22 09:05:48;;;;;;;;;;;;;;;;;;4958590;28;20083;-60
2022/01/22 09:08:15;;;;;;;;;;;;;;;;;;4961939;28;20028;-60
2022/01/22 09:10:40;;;;;;;;;;;;;;;;;;4965548;28;19949;-60
2022/01/22 09:13:08;;;;;;;;;;;;;;;;;;4958782;28;20222;-60
2022/01/22 09:15:33;;;;;;;;;;;;;;;;;;4964462;28;19922;-60
2022/01/22 09:17:59;;;;;;;;;;;;;;;;;;4965308;28;19918;-60
2022/01/22 09:20:43;;;;;;;;;;;;;;;;;;4967002;28;19914;-61
2022/01/22 09:23:12;;;;;;;;;;;;;;;;;;4962066;28;20303;-60
2022/01/22 09:25:38;;;;;;;;;;;;;;;;;;4965057;28;19999;-61
2022/01/22 09:28:04;;;;;;;;;;;;;;;;;;4961187;28;20127;-61
2022/01/22 09:30:30;;;;;;;;;;;;;;;;;;4968926;28;20009;-60
2022/01/22 09:32:55;;;;;;;;;;;;;;;;;;4959886;28;20048;-61
2022/01/22 09:35:21;;;;;;;;;;;;;;;;;;4964156;28;19949;-60
2022/01/22 09:37:46;;;;;;;;;;;;;;;;;;4963358;28;19918;-60
2022/01/22 09:40:15;;;;;;;;;;;;;;;;;;4963058;28;19922;-60
2022/01/22 09:42:41;;;;;;;;;;;;;;;;;;4963081;28;20280;-60
2022/01/22 09:45:07;;;;;;;;;;;;;;;;;;4965846;28;19931;-60
2022/01/22 09:47:32;;;;;;;;;;;;;;;;;;4966950;28;19924;-60
2022/01/22 09:49:57;;;;;;;;;;;;;;;;;;4963543;28;19927;-60
2022/01/22 09:52:23;;;;;;;;;;;;;;;;;;4966167;28;20376;-60
2022/01/22 09:54:48;;;;;;;;;;;;;;;;;;4963368;28;20126;-60
2022/01/22 09:57:14;;;;;;;;;;;;;;;;;;4962784;28;20021;-60
2022/01/22 09:59:39;;;;;;;;;;;;;;;;;;4958020;28;20371;-60
2022/01/22 10:02:08;;;;;;;;;;;;;;;;;;4964309;28;19925;-60
2022/01/22 10:04:36;;;;;;;;;;;;;;;;;;4961476;28;20032;-60
2022/01/22 10:07:01;;;;;;;;;;;;;;;;;;4965249;28;19926;-60
2022/01/22 10:09:33;;;;;;;;;;;;;;;;;;4961303;28;19922;-60
2022/01/22 10:12:16;;;;;;;;;;;;;;;;;;4964022;28;19926;-60
2022/01/22 10:15:00;;;;;;;;;;;;;;;;;;4965671;28;19929;-59
2022/01/22 10:17:46;;;;;;;;;;;;;;;;;;4964858;28;19918;-59
2022/01/22 10:20:29;;;;;;;;;;;;;;;;;;4967646;28;19926;-61
2022/01/22 10:22:58;;;;;;;;;;;;;;;;;;4966281;28;19922;-62
2022/01/22 10:25:40;;;;;;;;;;;;;;;;;;4963894;28;19956;-60
2022/01/22 10:28:06;;;;;;;;;;;;;;;;;;4965578;28;19918;-60
2022/01/22 10:30:38;;;;;;;;;;;;;;;;;;4960767;28;19930;-61
2022/01/22 10:33:19;;;;;;;;;;;;;;;;;;4969865;28;19918;-61
2022/01/22 10:35:45;;;;;;;;;;;;;;;;;;4973838;28;20249;-60
2022/01/22 10:38:10;;;;;;;;;;;;;;;;;;4965865;28;19918;-60
2022/01/22 10:40:40;;;;;;;;;;;;;;;;;;4964579;28;19980;-61
2022/01/22 10:43:21;;;;;;;;;;;;;;;;;;4964046;28;19925;-60
2022/01/22 10:45:57;;;;;;;;;;;;;;;;;;4960895;28;20407;-60
2022/01/22 10:48:22;;;;;;;;;;;;;;;;;;4966725;28;20012;-59
2022/01/22 10:51:05;;;;;;;;;;;;;;;;;;4965043;28;20455;-60
2022/01/22 10:53:42;;;;;;;;;;;;;;;;;;4967067;28;19918;-60
2022/01/22 10:56:07;;;;;;;;;;;;;;;;;;4960756;28;20029;-60
2022/01/22 10:58:33;;;;;;;;;;;;;;;;;;4965558;28;20045;-58
2022/01/22 11:00:59;;;;;;;;;;;;;;;;;;4966425;28;19922;-59
2022/01/22 11:03:26;;;;;;;;;;;;;;;;;;4966212;28;20013;-60
2022/01/22 11:05:52;;;;;;;;;;;;;;;;;;4967322;28;19922;-59
2022/01/22 11:08:17;;;;;;;;;;;;;;;;;;4962249;28;20295;-59
2022/01/22 11:10:46;;;;;;;;;;;;;;;;;;4961934;28;20352;-60
2022/01/22 11:13:11;;;;;;;;;;;;;;;;;;4962211;28;19992;-60
2022/01/22 11:15:38;;;;;;;;;;;;;;;;;;4967717;28;19918;-60
2022/01/22 11:18:04;;;;;;;;;;;;;;;;;;4968510;28;20004;-60
2022/01/22 11:20:31;;;;;;;;;;;;;;;;;;4966525;28;20102;-59
2022/01/22 11:22:57;;;;;;;;;;;;;;;;;;4961542;28;19969;-60
2022/01/22 11:25:24;;;;;;;;;;;;;;;;;;4988287;28;19921;-59
2022/01/22 11:27:49;;;;;;;;;;;;;;;;;;4961200;28;19925;-59
2022/01/22 11:30:16;;;;;;;;;;;;;;;;;;4969565;28;20336;-60
2022/01/22 11:32:43;;;;;;;;;;;;;;;;;;4968281;28;20300;-60
2022/01/22 11:35:09;;;;;;;;;;;;;;;;;;4966116;28;19923;-59
2022/01/22 11:37:51;;;;;;;;;;;;;;;;;;4967476;28;20392;-60
2022/01/22 11:40:24;;;;;;;;;;;;;;;;;;4969031;28;20364;-59
2022/01/22 11:42:57;;;;;;;;;;;;;;;;;;4967141;28;19942;-60
2022/01/22 11:45:23;;;;;;;;;;;;;;;;;;4965716;28;19977;-60
2022/01/22 11:48:26;;;;;;;;;;;;;;;;;;4965752;28;20005;-60
2022/01/22 11:50:53;;;;;;;;;;;;;;;;;;4903026;29;19923;-60
2022/01/22 11:53:21;;;;;;;;;;;;;;;;;;4953044;28;19918;-59
2022/01/22 11:56:05;;;;;;;;;;;;;;;;;;4964681;28;19921;-60
2022/01/22 11:58:30;;;;;;;;;;;;;;;;;;4967720;28;19929;-59
2022/01/22 12:00:56;;;;;;;;;;;;;;;;;;4968718;28;20146;-60
2022/01/22 12:03:21;;;;;;;;;;;;;;;;;;4965407;28;19918;-60
2022/01/22 12:05:53;;;;;;;;;;;;;;;;;;4967624;28;20031;-60
2022/01/22 12:08:19;;;;;;;;;;;;;;;;;;4963698;28;21447;-60
2022/01/22 12:14:27;;;;;;;;;;;;;;;;;;4963699;28;19961;-60
2022/01/22 12:16:17;;;;;;;;;;;;;;;;;;4967919;28;20442;-60
2022/01/22 12:18:57;;;;;;;;;;;;;;;;;;4962330;28;20032;-59
2022/01/22 12:21:34;;;;;;;;;;;;;;;;;;4963817;28;19918;-60
2022/01/22 12:24:00;;;;;;;;;;;;;;;;;;4961862;28;19937;-60
2022/01/22 12:26:38;;;;;;;;;;;;;;;;;;4966708;28;20446;-60
2022/01/22 12:29:22;;;;;;;;;;;;;;;;;;4966810;28;20203;-59
2022/01/22 12:32:15;;;;;;;;;;;;;;;;;;4960002;28;20240;-59
2022/01/22 12:34:50;;;;;;;;;;;;;;;;;;4960444;28;19922;-61
2022/01/22 12:37:17;;;;;;;;;;;;;;;;;;4966334;28;19925;-60
2022/01/22 12:39:49;;;;;;;;;;;;;;;;;;4966627;28;19921;-61
2022/01/22 12:42:25;;;;;;;;;;;;;;;;;;4960509;28;20313;-61
2022/01/22 12:44:56;;;;;;;;;;;;;;;;;;4962688;28;20419;-61
2022/01/22 12:47:22;;;;;;;;;;;;;;;;;;4965125;28;20289;-60
2022/01/22 12:49:57;;;;;;;;;;;;;;;;;;4966045;28;19918;-60
2022/01/22 12:52:25;;;;;;;;;;;;;;;;;;4983713;28;20357;-60
2022/01/22 12:54:56;;;;;;;;;;;;;;;;;;4962930;28;19919;-60
2022/01/22 12:57:25;;;;;;;;;;;;;;;;;;4963180;28;19918;-59
2022/01/22 13:00:08;;;;;;;;;;;;;;;;;;4963651;28;19918;-60
2022/01/22 13:02:44;;;;;;;;;;;;;;;;;;4960641;28;19926;-59
2022/01/22 13:05:11;;;;;;;;;;;;;;;;;;4970991;28;19926;-60
2022/01/22 13:07:37;;;;;;;;;;;;;;;;;;4960238;28;19921;-61
2022/01/22 13:10:06;;;;;;;;;;;;;;;;;;4963451;28;19945;-60
2022/01/22 13:12:32;;;;;;;;;;;;;;;;;;4964269;28;19937;-60
2022/01/22 13:14:58;;;;;;;;;;;;;;;;;;4964963;28;20391;-60
2022/01/22 13:17:30;;;;;;;;;;;;;;;;;;4965165;28;19918;-59
2022/01/22 13:19:56;;;;;;;;;;;;;;;;;;4962466;28;19965;-60
2022/01/22 13:22:29;;;;;;;;;;;;;;;;;;4961949;28;19973;-60
2022/01/22 13:25:02;;;;;;;;;;;;;;;;;;4959010;28;19928;-60
2022/01/22 13:27:29;;;;;;;;;;;;;;;;;;4961186;28;20273;-60
2022/01/22 13:29:56;;;;;;;;;;;;;;;;;;4965812;28;19925;-61
2022/01/22 13:40:59;;;;;;;;;;;;;;;;;;4962389;28;19927;-60
2022/01/22 13:48:46;;;;;;;;;;;;;;;;;;4963130;28;19933;-60
2022/01/22 13:51:12;;;;;;;;;;;;;;;;;;4965325;28;19923;-60
2022/01/22 13:53:39;;;;;;;;;;;;;;;;;;4971750;28;20029;-60
2022/01/22 13:56:10;;;;;;;;;;;;;;;;;;4971110;28;19926;-60
2022/01/22 13:58:35;;;;;;;;;;;;;;;;;;4964250;28;20372;-60
2022/01/22 14:01:07;;;;;;;;;;;;;;;;;;4967110;28;20240;-60
2022/01/22 14:03:44;;;;;;;;;;;;;;;;;;4967038;28;20343;-60
2022/01/22 14:06:10;;;;;;;;;;;;;;;;;;4967350;28;19933;-60
2022/01/22 14:08:36;;;;;;;;;;;;;;;;;;4966186;28;19918;-60
2022/01/22 14:11:09;;;;;;;;;;;;;;;;;;4966010;28;19973;-60
2022/01/22 14:13:35;;;;;;;;;;;;;;;;;;4963854;28;20008;-59
2022/01/22 14:16:15;;;;;;;;;;;;;;;;;;4964618;28;20009;-59
2022/01/22 14:18:41;;;;;;;;;;;;;;;;;;4970569;28;19926;-60
2022/01/22 14:21:12;;;;;;;;;;;;;;;;;;4967874;28;19922;-60
2022/01/22 14:23:39;;;;;;;;;;;;;;;;;;4961960;28;19933;-60
2022/01/22 14:26:08;;;;;;;;;;;;;;;;;;4967756;28;19922;-60
2022/01/22 14:28:38;;;;;;;;;;;;;;;;;;4966336;28;19921;-60
2022/01/22 14:31:22;;;;;;;;;;;;;;;;;;4963314;28;19988;-60
2022/01/22 14:33:47;;;;;;;;;;;;;;;;;;4968635;28;19965;-61
2022/01/22 14:36:17;;;;;;;;;;;;;;;;;;4971714;28;20012;-60
2022/01/22 14:46:37;;;;;;;;;;;;;;;;;;4966464;28;20057;-60
2022/01/22 14:49:03;;;;;;;;;;;;;;;;;;4963970;28;20392;-60
2022/01/22 14:51:28;;;;;;;;;;;;;;;;;;4957929;28;19925;-60
2022/01/22 14:53:54;;;;;;;;;;;;;;;;;;4966734;28;20293;-61
2022/01/22 14:56:20;;;;;;;;;;;;;;;;;;4967372;28;19949;-60
2022/01/22 14:58:45;;;;;;;;;;;;;;;;;;4965853;28;19973;-60
2022/01/22 15:01:11;;;;;;;;;;;;;;;;;;4966971;28;19922;-61
2022/01/22 15:03:36;;;;;;;;;;;;;;;;;;4962851;28;19927;-62
2022/01/22 15:06:02;;;;;;;;;;;;;;;;;;4968901;28;20406;-60
2022/01/22 15:08:27;;;;;;;;;;;;;;;;;;4965306;28;20336;-60
2022/01/22 15:10:52;;;;;;;;;;;;;;;;;;4965048;28;19927;-60
2022/01/22 15:13:18;;;;;;;;;;;;;;;;;;4969172;28;20426;-60
2022/01/22 15:15:46;;;;;;;;;;;;;;;;;;4968376;28;20605;-59
2022/01/22 15:18:25;;;;;;;;;;;;;;;;;;4963082;28;20304;-60
2022/01/22 15:20:50;;;;;;;;;;;;;;;;;;4968802;28;19918;-60
2022/01/22 15:23:16;;;;;;;;;;;;;;;;;;4963291;28;19945;-60
2022/01/22 15:25:41;;;;;;;;;;;;;;;;;;4963701;28;20388;-60
2022/01/22 15:28:06;;;;;;;;;;;;;;;;;;4966794;28;19921;-60
2022/01/22 15:30:35;;;;;;;;;;;;;;;;;;4968408;28;19918;-60
2022/01/22 15:33:20;;;;;;;;;;;;;;;;;;4965310;28;20250;-60
2022/01/22 15:35:45;;;;;;;;;;;;;;;;;;4967751;28;20107;-60
2022/01/22 15:38:11;;;;;;;;;;;;;;;;;;4964554;28;19937;-61
2022/01/22 15:40:37;;;;;;;;;;;;;;;;;;4968277;28;19937;-60
2022/01/22 15:43:03;;;;;;;;;;;;;;;;;;4963058;28;19918;-60
2022/01/22 15:45:31;;;;;;;;;;;;;;;;;;4966465;28;19922;-60
2022/01/22 15:47:57;;;;;;;;;;;;;;;;;;4961979;28;19918;-60
2022/01/22 15:50:23;;;;;;;;;;;;;;;;;;4966064;28;19934;-60
2022/01/22 15:52:48;;;;;;;;;;;;;;;;;;4962021;28;20146;-60
2022/01/22 15:55:14;;;;;;;;;;;;;;;;;;4965461;28;19996;-60
2022/01/22 15:57:41;;;;;;;;;;;;;;;;;;4961345;28;20303;-60
2022/01/22 16:00:07;;;;;;;;;;;;;;;;;;4962818;28;19945;-61
2022/01/22 16:02:34;;;;;;;;;;;;;;;;;;4965194;28;19973;-60
2022/01/22 16:04:59;;;;;;;;;;;;;;;;;;4959694;28;20028;-60
2022/01/22 16:07:25;;;;;;;;;;;;;;;;;;4963163;28;20432;-60
2022/01/22 16:09:51;;;;;;;;;;;;;;;;;;4969108;28;19921;-61
2022/01/22 16:12:21;;;;;;;;;;;;;;;;;;4966935;28;20249;-60
2022/01/22 16:14:47;;;;;;;;;;;;;;;;;;4965726;28;20280;-59
2022/01/22 16:17:16;;;;;;;;;;;;;;;;;;4965349;28;20009;-60
2022/01/22 16:19:42;;;;;;;;;;;;;;;;;;4959523;28;19940;-60
2022/01/22 16:22:07;;;;;;;;;;;;;;;;;;4967713;28;20299;-60
2022/01/22 16:24:32;;;;;;;;;;;;;;;;;;4959282;28;19934;-60
2022/01/22 16:26:58;;;;;;;;;;;;;;;;;;4960361;28;20400;-59
2022/01/22 16:29:25;;;;;;;;;;;;;;;;;;4965134;28;20372;-60
2022/01/22 16:31:51;;;;;;;;;;;;;;;;;;4963575;28;20308;-60
2022/01/22 16:34:16;;;;;;;;;;;;;;;;;;4967952;28;19986;-61
2022/01/22 16:36:41;;;;;;;;;;;;;;;;;;4964093;28;20414;-61
2022/01/22 16:39:07;;;;;;;;;;;;;;;;;;4966938;28;19986;-61
2022/01/22 16:41:34;;;;;;;;;;;;;;;;;;4956587;28;20454;-60
2022/01/22 16:44:12;;;;;;;;;;;;;;;;;;4962877;28;19930;-59
2022/01/22 16:54:53;;;;;;;;;;;;;;;;;;4965973;28;19922;-61
2022/01/22 16:57:27;;;;;;;;;;;;;;;;;;4959691;28;20407;-61
2022/01/22 16:59:55;;;;;;;;;;;;;;;;;;4965605;28;20399;-61
2022/01/22 17:02:21;;;;;;;;;;;;;;;;;;4964648;28;19944;-61
2022/01/22 17:04:52;;;;;;;;;;;;;;;;;;4963331;28;19984;-60
2022/01/22 17:15:00;;;;;;;;;;;;;;;;;;4962410;28;19973;-59
2022/01/22 17:17:26;;;;;;;;;;;;;;;;;;4965334;28;19961;-60
2022/01/22 17:19:52;;;;;;;;;;;;;;;;;;4963274;28;20463;-61
2022/01/22 17:22:18;;;;;;;;;;;;;;;;;;4958426;28;20046;-60
2022/01/22 17:24:44;;;;;;;;;;;;;;;;;;4962920;28;19929;-60
2022/01/22 17:27:09;;;;;;;;;;;;;;;;;;4961455;28;20281;-60
2022/01/22 17:29:35;;;;;;;;;;;;;;;;;;4968280;28;19968;-60
2022/01/22 17:32:00;;;;;;;;;;;;;;;;;;4963496;28;20025;-60
2022/01/22 17:34:26;;;;;;;;;;;;;;;;;;4966669;28;20354;-60
2022/01/22 17:36:52;;;;;;;;;;;;;;;;;;4959382;28;19922;-60
2022/01/22 17:39:19;;;;;;;;;;;;;;;;;;4965776;28;20021;-60
2022/01/22 17:41:47;;;;;;;;;;;;;;;;;;4958802;28;20446;-60
2022/01/22 17:44:18;;;;;;;;;;;;;;;;;;4957177;28;20040;-59
2022/01/22 17:46:43;;;;;;;;;;;;;;;;;;4961329;28;19922;-59
2022/01/22 17:49:09;;;;;;;;;;;;;;;;;;4963945;28;19918;-60
2022/01/22 17:51:34;;;;;;;;;;;;;;;;;;4962794;28;19997;-59
2022/01/22 17:54:00;;;;;;;;;;;;;;;;;;4960031;28;19929;-60
2022/01/22 17:56:25;;;;;;;;;;;;;;;;;;4966037;28;19928;-60
2022/01/22 17:58:50;;;;;;;;;;;;;;;;;;4965876;28;20372;-60
2022/01/22 18:01:17;;;;;;;;;;;;;;;;;;4965437;28;20005;-60
2022/01/22 18:03:55;;;;;;;;;;;;;;;;;;4968418;28;20334;-61
2022/01/22 18:06:21;;;;;;;;;;;;;;;;;;4958389;28;20387;-60
2022/01/22 18:08:46;;;;;;;;;;;;;;;;;;4959502;28;20428;-61
2022/01/22 18:11:14;;;;;;;;;;;;;;;;;;4960985;28;20012;-59
2022/01/22 18:13:39;;;;;;;;;;;;;;;;;;4958412;28;20024;-59
2022/01/22 18:16:05;;;;;;;;;;;;;;;;;;4964275;28;20435;-60
2022/01/22 18:18:31;;;;;;;;;;;;;;;;;;4964197;28;20017;-60
2022/01/22 18:20:56;;;;;;;;;;;;;;;;;;4964799;28;19925;-60
2022/01/22 18:23:22;;;;;;;;;;;;;;;;;;4960402;28;19929;-59
2022/01/22 18:25:48;;;;;;;;;;;;;;;;;;4962966;28;19933;-61
2022/01/22 18:28:13;;;;;;;;;;;;;;;;;;4962077;28;19918;-60
2022/01/22 18:30:38;;;;;;;;;;;;;;;;;;4963774;28;19930;-60
2022/01/22 18:33:04;;;;;;;;;;;;;;;;;;4956196;28;20522;-60
2022/01/22 18:35:29;;;;;;;;;;;;;;;;;;4958964;28;19918;-60
2022/01/22 18:37:54;;;;;;;;;;;;;;;;;;4962210;28;19926;-61
2022/01/22 18:40:20;;;;;;;;;;;;;;;;;;4963156;28;19964;-60
2022/01/22 18:42:51;;;;;;;;;;;;;;;;;;4961127;28;20346;-60
2022/01/22 18:45:16;;;;;;;;;;;;;;;;;;4960675;28;19922;-60
2022/01/22 18:47:42;;;;;;;;;;;;;;;;;;4966584;28;19933;-60
2022/01/22 18:50:07;;;;;;;;;;;;;;;;;;4960557;28;20016;-59
2022/01/22 18:52:33;;;;;;;;;;;;;;;;;;4959753;28;19918;-60
2022/01/22 18:54:58;;;;;;;;;;;;;;;;;;4964001;28;19925;-60
2022/01/22 18:57:23;;;;;;;;;;;;;;;;;;4965192;28;20323;-60
2022/01/22 18:59:49;;;;;;;;;;;;;;;;;;4965932;28;19925;-60
2022/01/22 19:02:15;;;;;;;;;;;;;;;;;;4959965;28;20240;-60
2022/01/22 19:04:40;;;;;;;;;;;;;;;;;;4965012;28;19971;-60
2022/01/22 19:07:09;;;;;;;;;;;;;;;;;;4962556;28;19922;-60